createdAt,value
2022-09-29T00:02:04.113Z,14.67
2022-09-29T00:04:30.565Z,14.67
2022-09-29T00:06:56.983Z,14.69
2022-09-29T00:09:23.386Z,14.73
2022-09-29T00:11:54.024Z,14.60
2022-09-29T00:14:20.492Z,14.54
2022-09-29T00:16:47.139Z,14.53
2022-09-29T00:19:13.548Z,14.46
2022-09-29T00:21:39.968Z,14.48
2022-09-29T00:24:06.438Z,14.46
2022-09-29T00:26:32.866Z,14.45
2022-09-29T00:29:00.757Z,14.27
2022-09-29T00:31:32.400Z,14.17
2022-09-29T00:33:59.485Z,14.25
2022-09-29T00:36:29.444Z,14.32
2022-09-29T00:38:56.487Z,14.43
2022-09-29T00:41:26.149Z,14.42
2022-09-29T00:44:07.349Z,14.27
2022-09-29T00:46:37.051Z,14.16
2022-09-29T00:49:12.791Z,14.13
2022-09-29T00:51:42.146Z,14.17
2022-09-29T00:54:10.428Z,14.18
2022-09-29T00:56:41.664Z,14.16
2022-09-29T00:59:10.021Z,14.20
2022-09-29T01:01:36.663Z,14.22
2022-09-29T01:04:14.254Z,14.20
2022-09-29T01:06:53.817Z,14.21
2022-09-29T01:09:35.017Z,14.16
2022-09-29T01:12:02.016Z,14.04
2022-09-29T01:14:29.764Z,14.07
2022-09-29T01:16:56.273Z,14.04
2022-09-29T01:19:31.664Z,13.96
2022-09-29T01:22:13.930Z,13.88
2022-09-29T01:25:02.025Z,13.88
2022-09-29T01:28:04.817Z,13.85
2022-09-29T01:30:49.216Z,13.80
2022-09-29T01:33:35.877Z,13.94
2022-09-29T01:36:26.283Z,13.90
2022-09-29T01:39:01.680Z,13.88
2022-09-29T01:41:51.425Z,13.95
2022-09-29T01:44:26.762Z,13.86
2022-09-29T01:46:58.570Z,13.78
2022-09-29T01:49:27.817Z,13.68
2022-09-29T01:52:00.708Z,13.54
2022-09-29T01:54:48.669Z,13.56
2022-09-29T01:57:25.561Z,13.57
2022-09-29T02:00:01.917Z,13.63
2022-09-29T02:02:36.385Z,13.64
2022-09-29T02:05:08.070Z,13.73
2022-09-29T02:07:40.141Z,13.82
2022-09-29T02:10:34.351Z,13.75
2022-09-29T02:13:04.830Z,13.74
2022-09-29T02:15:36.198Z,13.77
2022-09-29T02:18:10.634Z,13.76
2022-09-29T02:20:37.078Z,13.72
2022-09-29T02:23:03.966Z,13.71
2022-09-29T02:25:34.916Z,13.67
2022-09-29T02:28:01.953Z,13.57
2022-09-29T02:30:28.405Z,13.56
2022-09-29T02:32:54.817Z,13.57
2022-09-29T02:35:22.098Z,13.63
2022-09-29T02:37:59.965Z,13.66
2022-09-29T02:40:59.989Z,13.64
2022-09-29T02:43:55.468Z,13.70
2022-09-29T02:46:34.261Z,13.71
2022-09-29T02:49:26.340Z,13.70
2022-09-29T02:52:28.600Z,13.70
2022-09-29T02:55:08.353Z,13.81
2022-09-29T02:57:52.835Z,13.81
2022-09-29T03:00:20.380Z,13.79
2022-09-29T03:02:47.065Z,13.73
2022-09-29T03:05:16.631Z,13.64
2022-09-29T03:07:43.145Z,13.48
2022-09-29T03:10:11.240Z,13.30
2022-09-29T03:12:37.738Z,13.32
2022-09-29T03:15:05.334Z,13.35
2022-09-29T03:17:31.738Z,13.38
2022-09-29T03:19:58.176Z,13.41
2022-09-29T03:22:25.206Z,13.36
2022-09-29T03:24:51.870Z,13.47
2022-09-29T03:27:18.464Z,13.39
2022-09-29T03:29:44.849Z,13.21
2022-09-29T03:32:11.283Z,13.02
2022-09-29T03:34:37.791Z,13.04
2022-09-29T03:37:04.551Z,13.14
2022-09-29T03:39:31.003Z,13.20
2022-09-29T03:41:57.501Z,13.29
2022-09-29T03:44:24.057Z,13.14
2022-09-29T03:46:50.583Z,13.02
2022-09-29T03:49:17.054Z,12.95
2022-09-29T03:51:44.080Z,12.91
2022-09-29T03:54:11.117Z,12.96
2022-09-29T03:56:38.295Z,13.03
2022-09-29T03:59:08.390Z,13.10
2022-09-29T04:01:35.691Z,13.11
2022-09-29T04:04:02.207Z,13.12
2022-09-29T04:06:28.650Z,13.10
2022-09-29T04:08:55.063Z,13.15
2022-09-29T04:11:21.446Z,13.10
2022-09-29T04:13:47.838Z,13.13
2022-09-29T04:16:14.263Z,13.14
2022-09-29T04:18:40.684Z,13.15
2022-09-29T04:21:08.362Z,13.09
2022-09-29T04:23:36.423Z,13.06
2022-09-29T04:26:03.780Z,13.06
2022-09-29T04:28:35.335Z,13.12
2022-09-29T04:31:02.547Z,13.20
2022-09-29T04:33:29.978Z,13.20
2022-09-29T04:35:57.268Z,13.18
2022-09-29T04:38:23.776Z,13.18
2022-09-29T04:40:50.300Z,13.17
2022-09-29T04:43:17.200Z,13.21
2022-09-29T04:45:43.666Z,13.23
2022-09-29T04:48:10.168Z,13.24
2022-09-29T04:50:36.624Z,13.16
2022-09-29T04:53:03.150Z,13.08
2022-09-29T04:55:29.814Z,13.10
2022-09-29T04:57:56.206Z,13.19
2022-09-29T05:00:22.619Z,13.28
2022-09-29T05:02:50.003Z,13.33
2022-09-29T05:05:17.330Z,13.32
2022-09-29T05:07:44.572Z,13.23
2022-09-29T05:10:11.141Z,13.26
2022-09-29T05:12:37.697Z,13.31
2022-09-29T05:15:06.153Z,13.30
2022-09-29T05:17:32.634Z,13.25
2022-09-29T05:19:59.047Z,13.19
2022-09-29T05:22:26.040Z,13.16
2022-09-29T05:24:52.944Z,13.08
2022-09-29T05:27:19.469Z,13.08
2022-09-29T05:29:46.004Z,13.16
2022-09-29T05:32:12.901Z,13.24
2022-09-29T05:34:39.450Z,13.30
2022-09-29T05:37:05.961Z,13.29
2022-09-29T05:39:34.497Z,13.19
2022-09-29T05:42:02.362Z,13.14
2022-09-29T05:44:29.364Z,13.15
2022-09-29T05:46:55.839Z,13.13
2022-09-29T05:49:23.263Z,13.19
2022-09-29T05:51:49.754Z,13.21
2022-09-29T05:54:16.695Z,13.15
2022-09-29T05:56:45.463Z,13.12
2022-09-29T05:59:12.321Z,13.07
2022-09-29T06:01:38.886Z,13.15
2022-09-29T06:04:05.422Z,13.24
2022-09-29T06:06:31.934Z,13.23
2022-09-29T06:09:02.079Z,13.35
2022-09-29T06:11:31.954Z,13.50
2022-09-29T06:13:58.970Z,13.60
2022-09-29T06:16:31.174Z,13.66
2022-09-29T06:18:59.692Z,13.74
2022-09-29T06:21:27.707Z,13.85
2022-09-29T06:23:55.446Z,13.95
2022-09-29T06:26:24.324Z,14.01
2022-09-29T06:28:51.979Z,14.11
2022-09-29T06:31:21.168Z,14.22
2022-09-29T06:33:47.971Z,14.50
2022-09-29T06:36:35.930Z,14.61
2022-09-29T06:39:04.766Z,14.34
2022-09-29T06:41:31.145Z,14.18
2022-09-29T06:43:57.583Z,14.07
2022-09-29T06:46:26.784Z,14.02
2022-09-29T06:48:54.458Z,14.20
2022-09-29T06:51:22.659Z,14.14
2022-09-29T06:53:50.954Z,14.57
2022-09-29T06:56:19.077Z,14.54
2022-09-29T06:58:46.683Z,14.46
2022-09-29T07:01:13.765Z,14.49
2022-09-29T07:03:41.198Z,14.80
2022-09-29T07:06:25.434Z,14.78
2022-09-29T07:08:56.257Z,14.84
2022-09-29T07:11:23.226Z,15.49
2022-09-29T07:13:54.639Z,15.80
2022-09-29T07:16:24.178Z,15.50
2022-09-29T07:18:51.807Z,15.13
2022-09-29T07:21:19.070Z,15.59
2022-09-29T07:23:46.904Z,15.62
2022-09-29T07:26:16.344Z,15.37
2022-09-29T07:28:43.559Z,15.30
2022-09-29T07:31:18.807Z,15.11
2022-09-29T07:33:46.919Z,15.02
2022-09-29T07:36:14.824Z,15.00
2022-09-29T07:38:41.615Z,15.03
2022-09-29T07:41:13.374Z,15.07
2022-09-29T07:43:40.363Z,15.15
2022-09-29T07:46:07.701Z,15.25
2022-09-29T07:48:35.415Z,15.37
2022-09-29T07:51:06.012Z,15.42
2022-09-29T07:53:33.887Z,15.51
2022-09-29T07:56:05.796Z,15.66
2022-09-29T07:58:33.114Z,15.77
2022-09-29T08:01:00.317Z,15.91
2022-09-29T08:03:27.144Z,16.12
2022-09-29T08:05:53.953Z,16.28
2022-09-29T08:08:20.404Z,16.37
2022-09-29T08:10:52.886Z,16.45
2022-09-29T08:13:19.966Z,16.40
2022-09-29T08:15:46.690Z,16.38
2022-09-29T08:18:13.079Z,16.42
2022-09-29T08:20:39.474Z,16.42
2022-09-29T08:23:06.852Z,16.26
2022-09-29T08:25:34.024Z,16.20
2022-09-29T08:28:00.651Z,16.13
2022-09-29T08:30:27.046Z,15.99
2022-09-29T08:32:54.784Z,15.99
2022-09-29T08:35:21.179Z,16.01
2022-09-29T08:37:48.803Z,16.04
2022-09-29T08:40:16.569Z,16.02
2022-09-29T08:43:04.852Z,16.09
2022-09-29T08:45:56.801Z,16.17
2022-09-29T08:48:29.505Z,16.21
2022-09-29T08:51:03.676Z,16.35
2022-09-29T08:53:34.045Z,16.52
2022-09-29T08:56:04.675Z,16.63
2022-09-29T08:58:32.494Z,16.62
2022-09-29T09:01:27.937Z,16.65
2022-09-29T09:03:57.170Z,16.72
2022-09-29T09:07:01.040Z,16.84
2022-09-29T09:09:56.380Z,17.07
2022-09-29T09:12:34.458Z,17.27
2022-09-29T09:15:19.045Z,17.40
2022-09-29T09:17:54.530Z,17.33
2022-09-29T09:20:29.188Z,17.38
2022-09-29T09:22:58.313Z,17.64
2022-09-29T09:25:35.233Z,17.87
2022-09-29T09:28:19.847Z,17.84
2022-09-29T09:30:55.491Z,17.73
2022-09-29T09:33:37.669Z,17.71
2022-09-29T09:36:33.621Z,17.88
2022-09-29T09:39:29.785Z,17.96
2022-09-29T09:41:59.205Z,18.06
2022-09-29T09:44:34.780Z,18.16
2022-09-29T09:47:19.236Z,18.31
2022-09-29T09:49:52.230Z,18.69
2022-09-29T09:52:24.733Z,19.00
2022-09-29T09:54:58.481Z,18.93
2022-09-29T09:57:33.955Z,18.82
2022-09-29T10:00:16.569Z,18.89
2022-09-29T10:02:52.235Z,18.84
2022-09-29T10:05:34.293Z,18.65
2022-09-29T10:08:00.883Z,18.68
2022-09-29T10:10:29.302Z,18.73
2022-09-29T10:13:01.906Z,18.78
2022-09-29T10:15:34.343Z,18.82
2022-09-29T10:18:32.396Z,18.84
2022-09-29T10:20:58.808Z,18.74
2022-09-29T10:23:35.678Z,18.72
2022-09-29T10:26:12.777Z,19.08
2022-09-29T10:28:53.946Z,19.22
2022-09-29T10:31:29.247Z,19.38
2022-09-29T10:33:58.884Z,19.30
2022-09-29T10:36:29.384Z,19.26
2022-09-29T10:38:59.592Z,19.08
2022-09-29T10:41:31.473Z,19.04
2022-09-29T10:44:20.586Z,19.05
2022-09-29T10:46:55.868Z,19.09
2022-09-29T10:49:25.026Z,19.12
2022-09-29T10:52:06.932Z,19.49
2022-09-29T10:54:37.372Z,19.69
2022-09-29T10:57:16.013Z,19.87
2022-09-29T10:59:50.725Z,19.81
2022-09-29T11:02:25.632Z,19.82
2022-09-29T11:04:56.293Z,19.76
2022-09-29T11:07:22.832Z,19.93
2022-09-29T11:09:50.813Z,20.18
2022-09-29T11:12:26.334Z,20.27
2022-09-29T11:14:52.900Z,20.41
2022-09-29T11:17:21.008Z,20.48
2022-09-29T11:19:47.600Z,20.42
2022-09-29T11:22:38.760Z,20.43
2022-09-29T11:25:20.413Z,20.45
2022-09-29T11:28:04.957Z,20.67
2022-09-29T11:30:57.980Z,20.47
2022-09-29T11:33:27.656Z,20.13
2022-09-29T11:36:12.419Z,20.13
2022-09-29T11:39:09.832Z,20.45
2022-09-29T11:41:45.864Z,20.72
2022-09-29T11:44:40.021Z,20.59
2022-09-29T11:47:20.824Z,20.43
2022-09-29T11:50:18.413Z,20.30
2022-09-29T11:53:15.587Z,20.36
2022-09-29T11:55:51.478Z,20.45
2022-09-29T11:59:02.027Z,20.62
2022-09-29T12:01:49.838Z,20.87
2022-09-29T12:04:27.993Z,20.97
2022-09-29T12:07:52.907Z,20.96
2022-09-29T12:10:26.975Z,20.88
2022-09-29T12:13:06.310Z,20.71
2022-09-29T12:15:58.768Z,20.57
2022-09-29T12:18:52.951Z,20.51
2022-09-29T12:21:34.464Z,20.65
2022-09-29T12:24:04.977Z,20.74
2022-09-29T12:26:33.436Z,20.84
2022-09-29T12:29:02.497Z,20.93
2022-09-29T12:31:35.441Z,20.91
2022-09-29T12:34:14.812Z,20.91
2022-09-29T12:36:52.268Z,20.97
2022-09-29T12:39:41.846Z,20.85
2022-09-29T12:42:29.402Z,20.71
2022-09-29T12:45:40.502Z,20.64
2022-09-29T12:48:19.034Z,20.49
2022-09-29T12:50:57.234Z,20.40
2022-09-29T12:53:28.788Z,20.39
2022-09-29T12:56:21.901Z,20.44
2022-09-29T12:58:53.757Z,20.49
2022-09-29T13:01:28.207Z,20.62
2022-09-29T13:04:21.931Z,20.82
2022-09-29T13:07:32.704Z,21.00
2022-09-29T13:10:20.330Z,21.04
2022-09-29T13:13:44.661Z,21.03
2022-09-29T13:16:31.146Z,21.05
2022-09-29T13:19:45.658Z,21.14
2022-09-29T13:22:38.573Z,21.10
2022-09-29T13:25:11.278Z,21.17
2022-09-29T13:27:42.350Z,21.34
2022-09-29T13:30:11.947Z,21.25
2022-09-29T13:32:41.796Z,21.10
2022-09-29T13:35:17.288Z,21.02
2022-09-29T13:37:48.579Z,20.94
2022-09-29T13:40:28.363Z,20.93
2022-09-29T13:42:56.784Z,20.99
2022-09-29T13:45:26.840Z,21.00
2022-09-29T13:48:01.906Z,20.88
2022-09-29T13:50:47.905Z,20.89
2022-09-29T13:53:25.420Z,20.99
2022-09-29T13:56:04.165Z,20.81
2022-09-29T13:58:31.884Z,20.73
2022-09-29T14:01:00.895Z,20.66
2022-09-29T14:03:45.145Z,20.59
2022-09-29T14:09:19.965Z,20.39
2022-09-29T14:11:52.948Z,20.35
2022-09-29T14:14:38.122Z,20.06
2022-09-29T14:17:14.201Z,19.60
2022-09-29T14:19:43.399Z,19.28
2022-09-29T14:22:31.883Z,18.99
2022-09-29T14:25:10.751Z,18.83
2022-09-29T14:27:51.750Z,18.74
2022-09-29T14:30:20.055Z,18.72
2022-09-29T14:32:57.849Z,18.65
2022-09-29T14:35:27.693Z,18.63
2022-09-29T14:38:05.569Z,18.69
2022-09-29T14:40:32.846Z,18.68
2022-09-29T14:43:13.800Z,18.61
2022-09-29T14:46:17.080Z,18.56
2022-09-29T14:49:10.054Z,18.56
2022-09-29T14:52:00.294Z,18.63
2022-09-29T14:54:43.074Z,18.58
2022-09-29T14:57:33.464Z,18.55
2022-09-29T14:59:59.840Z,18.55
2022-09-29T15:02:29.740Z,18.41
2022-09-29T15:04:56.736Z,18.12
2022-09-29T15:07:26.500Z,17.92
2022-09-29T15:09:57.721Z,17.82
2022-09-29T15:12:31.548Z,17.79
2022-09-29T15:14:59.250Z,17.74
2022-09-29T15:17:44.946Z,17.77
2022-09-29T15:20:54.631Z,17.72
2022-09-29T15:23:58.935Z,17.69
2022-09-29T15:26:31.299Z,17.66
2022-09-29T15:28:59.114Z,17.70
2022-09-29T15:31:34.292Z,17.82
2022-09-29T15:34:02.954Z,17.83
2022-09-29T15:36:36.245Z,17.87
2022-09-29T15:39:33.359Z,17.83
2022-09-29T15:42:15.305Z,17.80
2022-09-29T15:44:50.643Z,17.86
2022-09-29T15:47:22.113Z,17.87
2022-09-29T15:49:51.751Z,17.84
2022-09-29T15:52:23.626Z,17.88
2022-09-29T15:55:08.221Z,17.94
2022-09-29T15:57:58.416Z,17.82
2022-09-29T16:00:26.736Z,17.65
2022-09-29T16:03:14.371Z,17.55
2022-09-29T16:05:52.322Z,17.47
2022-09-29T16:08:25.330Z,17.46
2022-09-29T16:10:57.584Z,17.44
2022-09-29T16:13:28.062Z,17.38
2022-09-29T16:15:57.426Z,17.38
2022-09-29T16:18:30.216Z,17.41
2022-09-29T16:21:00.199Z,17.38
2022-09-29T16:23:36.149Z,17.36
2022-09-29T16:26:14.271Z,17.31
2022-09-29T16:29:07.758Z,17.28
2022-09-29T16:31:35.728Z,17.29
2022-09-29T16:34:02.434Z,17.26
2022-09-29T16:36:36.883Z,17.22
2022-09-29T16:39:07.343Z,17.15
2022-09-29T16:41:40.702Z,17.07
2022-09-29T16:44:43.622Z,17.12
2022-09-29T16:47:09.975Z,17.15
2022-09-29T16:50:14.480Z,16.97
2022-09-29T16:52:48.183Z,16.90
2022-09-29T16:55:27.570Z,16.85
2022-09-29T16:58:00.271Z,16.79
2022-09-29T17:00:26.952Z,16.77
2022-09-29T17:03:05.605Z,16.72
2022-09-29T17:05:38.141Z,16.66
2022-09-29T17:10:38.177Z,16.71
2022-09-29T17:13:13.491Z,16.70
2022-09-29T17:15:40.552Z,16.62
2022-09-29T17:18:11.984Z,16.70
2022-09-29T17:20:38.662Z,16.69
2022-09-29T17:23:05.939Z,16.75
2022-09-29T17:25:33.796Z,16.62
2022-09-29T17:28:12.348Z,16.63
2022-09-29T17:30:44.360Z,16.64
2022-09-29T17:33:12.988Z,16.55
2022-09-29T17:35:51.657Z,16.56
2022-09-29T17:38:21.027Z,16.49
2022-09-29T17:41:02.235Z,16.55
2022-09-29T17:43:31.267Z,16.62
2022-09-29T17:45:59.324Z,16.67
2022-09-29T17:48:26.908Z,16.65
2022-09-29T17:50:56.485Z,16.71
2022-09-29T17:53:24.301Z,16.61
2022-09-29T17:55:54.352Z,16.50
2022-09-29T17:58:21.321Z,16.45
2022-09-29T18:00:50.240Z,16.49
2022-09-29T18:03:18.695Z,16.52
2022-09-29T18:05:47.860Z,16.45
2022-09-29T18:08:17.116Z,16.38
2022-09-29T18:11:11.258Z,16.37
2022-09-29T18:13:37.691Z,16.38
2022-09-29T18:16:04.273Z,16.39
2022-09-29T18:18:30.776Z,16.43
2022-09-29T18:20:57.333Z,16.31
2022-09-29T18:23:24.020Z,16.37
2022-09-29T18:25:52.037Z,16.35
2022-09-29T18:28:19.175Z,16.23
2022-09-29T18:30:49.315Z,16.19
2022-09-29T18:33:18.755Z,16.16
2022-09-29T18:35:50.848Z,16.20
2022-09-29T18:38:17.222Z,16.19
2022-09-29T18:40:43.690Z,16.20
2022-09-29T18:43:13.928Z,16.22
2022-09-29T18:45:43.699Z,16.24
2022-09-29T18:48:15.301Z,16.16
2022-09-29T18:50:47.076Z,16.12
2022-09-29T18:53:16.217Z,16.06
2022-09-29T18:55:43.009Z,16.06
2022-09-29T18:58:14.064Z,15.99
2022-09-29T19:00:42.587Z,15.96
2022-09-29T19:03:08.996Z,15.96
2022-09-29T19:05:41.849Z,15.98
2022-09-29T19:08:08.548Z,16.07
2022-09-29T19:10:36.387Z,16.10
2022-09-29T19:13:08.048Z,16.10
2022-09-29T19:15:39.213Z,16.15
2022-09-29T19:18:10.607Z,16.05
2022-09-29T19:20:37.124Z,16.04
2022-09-29T19:23:03.886Z,15.98
2022-09-29T19:25:36.262Z,15.85
2022-09-29T19:28:05.604Z,15.83
2022-09-29T19:30:38.645Z,15.81
2022-09-29T19:33:07.867Z,15.80
2022-09-29T19:35:35.681Z,15.72
2022-09-29T19:38:02.881Z,15.59
2022-09-29T19:40:34.270Z,15.49
2022-09-29T19:43:05.800Z,15.40
2022-09-29T19:45:38.282Z,15.36
2022-09-29T19:48:06.075Z,15.33
2022-09-29T19:50:51.299Z,15.24
2022-09-29T19:53:17.931Z,15.18
2022-09-29T19:55:46.247Z,15.18
2022-09-29T19:58:12.676Z,15.19
2022-09-29T20:00:42.671Z,15.19
2022-09-29T20:03:10.257Z,15.17
2022-09-29T20:05:37.417Z,15.17
2022-09-29T20:08:04.442Z,15.17
2022-09-29T20:10:31.201Z,15.04
2022-09-29T20:12:57.889Z,15.00
2022-09-29T20:15:25.644Z,15.05
2022-09-29T20:17:52.520Z,15.07
2022-09-29T20:20:22.653Z,14.99
2022-09-29T20:22:49.768Z,15.01
2022-09-29T20:25:16.502Z,15.04
2022-09-29T20:27:43.027Z,15.07
2022-09-29T20:30:10.077Z,15.05
2022-09-29T20:32:36.634Z,15.00
2022-09-29T20:35:03.537Z,14.96
2022-09-29T20:37:30.079Z,14.95
2022-09-29T20:39:56.535Z,14.93
2022-09-29T20:42:25.993Z,14.93
2022-09-29T20:44:55.058Z,14.92
2022-09-29T20:47:25.463Z,14.91
2022-09-29T20:49:54.914Z,14.88
2022-09-29T20:52:21.747Z,14.90
2022-09-29T20:54:48.486Z,14.89
2022-09-29T20:57:16.569Z,14.87
2022-09-29T20:59:43.705Z,14.87
2022-09-29T21:02:11.745Z,14.86
2022-09-29T21:04:38.468Z,14.84
2022-09-29T21:07:05.073Z,14.79
2022-09-29T21:09:31.578Z,14.72
2022-09-29T21:11:58.037Z,14.65
2022-09-29T21:14:27.550Z,14.61
2022-09-29T21:16:54.267Z,14.63
2022-09-29T21:19:26.051Z,14.60
2022-09-29T21:21:55.955Z,14.60
2022-09-29T21:24:22.471Z,14.55
2022-09-29T21:26:48.969Z,14.44
2022-09-29T21:29:17.561Z,14.43
2022-09-29T21:31:44.467Z,14.48
2022-09-29T21:34:13.224Z,14.54
2022-09-29T21:36:40.109Z,14.55
2022-09-29T21:39:08.896Z,14.52
2022-09-29T21:41:38.862Z,14.51
2022-09-29T21:44:11.316Z,14.49
2022-09-29T21:46:39.026Z,14.50
2022-09-29T21:49:10.213Z,14.57
2022-09-29T21:51:39.331Z,14.54
2022-09-29T21:54:07.602Z,14.53
2022-09-29T21:56:40.296Z,14.58
2022-09-29T21:59:08.346Z,14.61
2022-09-29T22:01:34.921Z,14.63
2022-09-29T22:04:02.377Z,14.73
2022-09-29T22:06:30.736Z,14.76
2022-09-29T22:08:58.207Z,14.72
2022-09-29T22:11:30.263Z,14.75
2022-09-29T22:13:59.015Z,14.80
2022-09-29T22:16:29.236Z,14.87
2022-09-29T22:19:21.410Z,14.76
2022-09-29T22:21:44.797Z,14.65
2022-09-29T22:24:12.567Z,14.60
2022-09-29T22:26:40.590Z,14.57
2022-09-29T22:29:07.025Z,14.58
2022-09-29T22:31:34.564Z,14.55
2022-09-29T22:34:04.160Z,14.61
2022-09-29T22:36:33.058Z,14.64
2022-09-29T22:39:00.110Z,14.62
2022-09-29T22:41:26.540Z,14.70
2022-09-29T22:43:54.455Z,14.80
2022-09-29T22:46:25.823Z,14.83
2022-09-29T22:48:52.757Z,14.85
2022-09-29T22:51:21.076Z,14.90
2022-09-29T22:53:47.484Z,14.94
2022-09-29T22:56:27.947Z,14.99
2022-09-29T22:58:59.686Z,14.90
2022-09-29T23:01:26.952Z,14.81
2022-09-29T23:03:53.605Z,14.83
2022-09-29T23:06:20.138Z,14.84
2022-09-29T23:08:46.705Z,14.89
2022-09-29T23:11:19.343Z,14.79
2022-09-29T23:13:45.913Z,14.81
2022-09-29T23:16:13.989Z,14.79
2022-09-29T23:18:44.529Z,14.68
2022-09-29T23:21:18.991Z,14.57
2022-09-29T23:23:47.338Z,14.49
2022-09-29T23:26:13.751Z,14.53
2022-09-29T23:28:40.534Z,14.60
2022-09-29T23:31:08.224Z,14.54
2022-09-29T23:33:35.165Z,14.43
2022-09-29T23:36:12.787Z,14.43
2022-09-29T23:38:59.863Z,14.46
2022-09-29T23:41:27.902Z,14.44
2022-09-29T23:43:57.781Z,14.46
2022-09-29T23:46:25.967Z,14.61
2022-09-29T23:48:52.435Z,14.65
2022-09-29T23:51:18.947Z,14.63
2022-09-29T23:53:45.411Z,14.64
2022-09-29T23:56:11.840Z,14.67
2022-09-29T23:58:38.220Z,14.70
